Main page
METAR-TAF:

METAR-TAF

Airports :

Baghdad, Iraq

Baghdad International Airport

latitude: 33-15-45N, longitude: 44-14-04E, elevation: 35 m

Current weather observation

The report was made 1 hour and 5 minutes ago, at 05:00 UTC
Wind 4 kt from the South, varying between South/Southeast and West/Southwest
Temperature 21°C
Humidity 30%
Pressure 1015 hPa
Visibility: 3800 m
Broken clouds at a height of 2800 ft
rain

METAR: ORBI 240500Z 19004KT 150V250 3800 RA BKN028 21/03 Q1015

Time: 09:05 (06:05 UTC)

Forecast

The report was made 2 hours and 5 minutes ago, at 04:00 UTC
Forecast valid from 24 at 06 UTC to 25 at 06 UTC
Wind 8 kt from the East/Southeast
Visibility: 6000 m
Scattered clouds at a height of 4000 ft
Scattered clouds at a height of 8000 ft

TAF: ORBI 240400Z 2406/2506 12008KT 6000 SCT040 SCT080

Weather observations and forecasts of more than 4000 airports (METAR and TAF reports).

The available stations are represented by yellow and red dots on the map.

Hover mouse over dot to see the name of the station.

Then click to see weather observations and forecasts.

To change the map : click on the green buttons with a black cross to zoom in, on the green button with a dash to zoom out, or on the green arrows for adjacent maps.


METAR-TAF: